sensor_id;sensor_type;location;lat;lon;timestamp;temperature;humidity
71801;HTU21D;59647;55.838;37.292;2023-07-28T16:49:15;19.33;107.27
71801;HTU21D;59647;55.838;37.292;2023-07-28T16:51:41;19.54;107.62
71801;HTU21D;59647;55.838;37.292;2023-07-28T16:54:07;19.77;107.88
71801;HTU21D;59647;55.838;37.292;2023-07-28T16:56:33;19.97;107.56
71801;HTU21D;59647;55.838;37.292;2023-07-28T16:58:58;20.13;107.33
71801;HTU21D;59647;55.838;37.292;2023-07-28T17:01:24;20.25;105.82
71801;HTU21D;59647;55.838;37.292;2023-07-28T17:03:50;20.35;105.77
71801;HTU21D;59647;55.838;37.292;2023-07-28T17:06:16;20.45;106.01
71801;HTU21D;59647;55.838;37.292;2023-07-28T17:08:42;20.49;105.11
71801;HTU21D;59647;55.838;37.292;2023-07-28T17:11:08;20.53;104.31
71801;HTU21D;59647;55.838;37.292;2023-07-28T17:13:34;20.57;104.18
71801;HTU21D;59647;55.838;37.292;2023-07-28T17:16:00;20.59;103.05
71801;HTU21D;59647;55.838;37.292;2023-07-28T17:18:26;20.57;102.80
71801;HTU21D;59647;55.838;37.292;2023-07-28T17:20:52;20.56;102.71
71801;HTU21D;59647;55.838;37.292;2023-07-28T17:23:18;20.55;102.18
71801;HTU21D;59647;55.838;37.292;2023-07-28T17:25:44;20.56;101.30
71801;HTU21D;59647;55.838;37.292;2023-07-28T17:28:10;20.57;102.71
71801;HTU21D;59647;55.838;37.292;2023-07-28T17:30:36;20.54;100.93
71801;HTU21D;59647;55.838;37.292;2023-07-28T17:33:01;20.56;102.01
71801;HTU21D;59647;55.838;37.292;2023-07-28T17:35:27;20.53;100.15
71801;HTU21D;59647;55.838;37.292;2023-07-28T17:37:55;20.53;101.37
71801;HTU21D;59647;55.838;37.292;2023-07-28T17:40:21;20.54;101.60
71801;HTU21D;59647;55.838;37.292;2023-07-28T17:42:46;20.49;101.13
71801;HTU21D;59647;55.838;37.292;2023-07-28T17:45:15;20.45;101.09
71801;HTU21D;59647;55.838;37.292;2023-07-28T17:47:42;20.42;100.93
71801;HTU21D;59647;55.838;37.292;2023-07-28T17:50:08;20.39;100.38
71801;HTU21D;59647;55.838;37.292;2023-07-28T17:52:35;20.35;99.64
71801;HTU21D;59647;55.838;37.292;2023-07-28T17:55:01;20.31;98.87
71801;HTU21D;59647;55.838;37.292;2023-07-28T17:57:30;20.29;100.24
71801;HTU21D;59647;55.838;37.292;2023-07-28T17:59:57;20.29;99.93
71801;HTU21D;59647;55.838;37.292;2023-07-28T18:02:23;20.26;99.98
71801;HTU21D;59647;55.838;37.292;2023-07-28T18:04:49;20.22;99.71
71801;HTU21D;59647;55.838;37.292;2023-07-28T18:07:15;20.20;100.13
71801;HTU21D;59647;55.838;37.292;2023-07-28T18:09:41;20.17;99.95
71801;HTU21D;59647;55.838;37.292;2023-07-28T18:12:07;20.15;100.05
71801;HTU21D;59647;55.838;37.292;2023-07-28T18:14:33;20.16;99.54
71801;HTU21D;59647;55.838;37.292;2023-07-28T18:16:59;20.14;99.92
71801;HTU21D;59647;55.838;37.292;2023-07-28T18:19:26;20.10;99.21
71801;HTU21D;59647;55.838;37.292;2023-07-28T18:21:52;20.06;99.87
71801;HTU21D;59647;55.838;37.292;2023-07-28T18:24:17;20.04;99.73
71801;HTU21D;59647;55.838;37.292;2023-07-28T18:26:47;20.05;99.84
71801;HTU21D;59647;55.838;37.292;2023-07-28T18:29:13;20.04;99.29
71801;HTU21D;59647;55.838;37.292;2023-07-28T18:31:39;20.00;98.97
71801;HTU21D;59647;55.838;37.292;2023-07-28T18:34:06;19.94;99.48
71801;HTU21D;59647;55.838;37.292;2023-07-28T18:36:38;19.88;99.35
71801;HTU21D;59647;55.838;37.292;2023-07-28T18:39:33;19.85;99.38
71801;HTU21D;59647;55.838;37.292;2023-07-28T18:42:28;19.82;99.58
71801;HTU21D;59647;55.838;37.292;2023-07-28T18:45:54;19.76;99.81
71801;HTU21D;59647;55.838;37.292;2023-07-28T18:48:25;19.71;99.77
71801;HTU21D;59647;55.838;37.292;2023-07-28T18:50:55;19.65;99.90
71801;HTU21D;59647;55.838;37.292;2023-07-28T18:53:22;19.61;100.25
71801;HTU21D;59647;55.838;37.292;2023-07-28T18:55:50;19.57;100.52
71801;HTU21D;59647;55.838;37.292;2023-07-28T18:58:16;19.53;100.48
71801;HTU21D;59647;55.838;37.292;2023-07-28T19:00:42;19.50;100.54
71801;HTU21D;59647;55.838;37.292;2023-07-28T19:03:07;19.47;100.60
71801;HTU21D;59647;55.838;37.292;2023-07-28T19:05:33;19.46;100.64
71801;HTU21D;59647;55.838;37.292;2023-07-28T19:07:59;19.41;100.32
71801;HTU21D;59647;55.838;37.292;2023-07-28T19:10:25;19.41;100.21
71801;HTU21D;59647;55.838;37.292;2023-07-28T19:12:54;19.36;100.16
71801;HTU21D;59647;55.838;37.292;2023-07-28T19:15:20;19.29;100.26
71801;HTU21D;59647;55.838;37.292;2023-07-28T19:17:46;19.23;100.16
71801;HTU21D;59647;55.838;37.292;2023-07-28T19:20:12;19.17;100.21
71801;HTU21D;59647;55.838;37.292;2023-07-28T19:22:41;19.17;100.07
71801;HTU21D;59647;55.838;37.292;2023-07-28T19:25:07;19.16;99.98
71801;HTU21D;59647;55.838;37.292;2023-07-28T19:27:34;19.13;100.02
71801;HTU21D;59647;55.838;37.292;2023-07-28T19:30:04;19.11;99.79
71801;HTU21D;59647;55.838;37.292;2023-07-28T19:32:31;19.11;99.80
71801;HTU21D;59647;55.838;37.292;2023-07-28T19:34:57;19.07;99.69
71801;HTU21D;59647;55.838;37.292;2023-07-28T19:37:23;19.02;99.64
71801;HTU21D;59647;55.838;37.292;2023-07-28T19:39:49;19.00;99.55
71801;HTU21D;59647;55.838;37.292;2023-07-28T19:42:17;18.96;99.69
71801;HTU21D;59647;55.838;37.292;2023-07-28T19:44:43;18.94;99.74
71801;HTU21D;59647;55.838;37.292;2023-07-28T19:47:09;18.91;99.67
71801;HTU21D;59647;55.838;37.292;2023-07-28T19:49:35;18.88;99.63
71801;HTU21D;59647;55.838;37.292;2023-07-28T19:52:01;18.86;99.67
71801;HTU21D;59647;55.838;37.292;2023-07-28T19:54:27;18.84;99.77
71801;HTU21D;59647;55.838;37.292;2023-07-28T19:56:55;18.81;99.87
71801;HTU21D;59647;55.838;37.292;2023-07-28T19:59:21;18.79;99.96
71801;HTU21D;59647;55.838;37.292;2023-07-28T20:01:48;18.78;99.83
71801;HTU21D;59647;55.838;37.292;2023-07-28T20:04:15;18.78;99.81
71801;HTU21D;59647;55.838;37.292;2023-07-28T20:06:41;18.77;99.84
71801;HTU21D;59647;55.838;37.292;2023-07-28T20:09:07;18.76;99.79
71801;HTU21D;59647;55.838;37.292;2023-07-28T20:11:33;18.76;99.75
71801;HTU21D;59647;55.838;37.292;2023-07-28T20:13:59;18.74;99.67
71801;HTU21D;59647;55.838;37.292;2023-07-28T20:16:25;18.72;99.58
71801;HTU21D;59647;55.838;37.292;2023-07-28T20:18:53;18.69;99.62
71801;HTU21D;59647;55.838;37.292;2023-07-28T20:21:19;18.71;99.67
71801;HTU21D;59647;55.838;37.292;2023-07-28T20:23:45;18.72;99.70
71801;HTU21D;59647;55.838;37.292;2023-07-28T20:26:11;18.71;99.67
71801;HTU21D;59647;55.838;37.292;2023-07-28T20:28:43;18.70;99.74
71801;HTU21D;59647;55.838;37.292;2023-07-28T20:31:09;18.69;99.87
71801;HTU21D;59647;55.838;37.292;2023-07-28T20:33:35;18.68;99.83
71801;HTU21D;59647;55.838;37.292;2023-07-28T20:36:01;18.69;99.88
71801;HTU21D;59647;55.838;37.292;2023-07-28T20:38:27;18.69;99.88
71801;HTU21D;59647;55.838;37.292;2023-07-28T20:40:53;18.68;99.73
71801;HTU21D;59647;55.838;37.292;2023-07-28T20:43:19;18.64;99.80
71801;HTU21D;59647;55.838;37.292;2023-07-28T20:45:48;18.61;99.95
71801;HTU21D;59647;55.838;37.292;2023-07-28T20:48:14;18.61;99.77
71801;HTU21D;59647;55.838;37.292;2023-07-28T20:50:40;18.56;99.72
71801;HTU21D;59647;55.838;37.292;2023-07-28T20:53:06;18.55;99.90
71801;HTU21D;59647;55.838;37.292;2023-07-28T20:55:32;18.55;99.81
71801;HTU21D;59647;55.838;37.292;2023-07-28T20:57:58;18.49;100.08
71801;HTU21D;59647;55.838;37.292;2023-07-28T21:00:27;18.47;100.20
71801;HTU21D;59647;55.838;37.292;2023-07-28T21:02:54;18.44;100.22
71801;HTU21D;59647;55.838;37.292;2023-07-28T21:05:20;18.44;100.31
71801;HTU21D;59647;55.838;37.292;2023-07-28T21:07:49;18.42;100.35
71801;HTU21D;59647;55.838;37.292;2023-07-28T21:10:15;18.41;100.38
71801;HTU21D;59647;55.838;37.292;2023-07-28T21:12:41;18.42;100.12
71801;HTU21D;59647;55.838;37.292;2023-07-28T21:15:07;18.40;100.06
71801;HTU21D;59647;55.838;37.292;2023-07-28T21:17:40;18.29;100.39
71801;HTU21D;59647;55.838;37.292;2023-07-28T21:20:07;18.25;100.60
71801;HTU21D;59647;55.838;37.292;2023-07-28T21:22:34;18.25;100.46
71801;HTU21D;59647;55.838;37.292;2023-07-28T21:25:00;18.24;100.25
71801;HTU21D;59647;55.838;37.292;2023-07-28T21:27:25;18.21;100.29
71801;HTU21D;59647;55.838;37.292;2023-07-28T21:29:51;18.18;100.22
71801;HTU21D;59647;55.838;37.292;2023-07-28T21:32:21;18.14;100.29
71801;HTU21D;59647;55.838;37.292;2023-07-28T21:34:46;18.11;100.39
71801;HTU21D;59647;55.838;37.292;2023-07-28T21:37:12;18.07;100.17
71801;HTU21D;59647;55.838;37.292;2023-07-28T21:39:38;18.00;100.35
71801;HTU21D;59647;55.838;37.292;2023-07-28T21:42:07;17.96;100.01
71801;HTU21D;59647;55.838;37.292;2023-07-28T21:44:35;17.89;100.17
71801;HTU21D;59647;55.838;37.292;2023-07-28T21:47:01;17.83;99.91
71801;HTU21D;59647;55.838;37.292;2023-07-28T21:49:27;17.77;99.94
71801;HTU21D;59647;55.838;37.292;2023-07-28T21:51:53;17.72;100.03
71801;HTU21D;59647;55.838;37.292;2023-07-28T21:54:21;17.67;99.93
71801;HTU21D;59647;55.838;37.292;2023-07-28T21:56:47;17.61;100.45
71801;HTU21D;59647;55.838;37.292;2023-07-28T21:59:13;17.56;100.41
71801;HTU21D;59647;55.838;37.292;2023-07-28T22:01:39;17.48;100.86
71801;HTU21D;59647;55.838;37.292;2023-07-28T22:04:05;17.48;100.83
71801;HTU21D;59647;55.838;37.292;2023-07-28T22:06:31;17.48;100.93
71801;HTU21D;59647;55.838;37.292;2023-07-28T22:08:56;17.51;100.38
71801;HTU21D;59647;55.838;37.292;2023-07-28T22:11:23;17.48;100.34
71801;HTU21D;59647;55.838;37.292;2023-07-28T22:13:50;17.40;101.07
71801;HTU21D;59647;55.838;37.292;2023-07-28T22:16:17;17.37;100.75
71801;HTU21D;59647;55.838;37.292;2023-07-28T22:18:43;17.35;100.69
71801;HTU21D;59647;55.838;37.292;2023-07-28T22:21:12;17.32;101.60
71801;HTU21D;59647;55.838;37.292;2023-07-28T22:23:38;17.28;101.53
71801;HTU21D;59647;55.838;37.292;2023-07-28T22:26:04;17.26;101.63
71801;HTU21D;59647;55.838;37.292;2023-07-28T22:28:31;17.21;102.56
71801;HTU21D;59647;55.838;37.292;2023-07-28T22:30:57;17.22;102.30
71801;HTU21D;59647;55.838;37.292;2023-07-28T22:33:23;17.22;101.71
71801;HTU21D;59647;55.838;37.292;2023-07-28T22:35:49;17.23;102.16
71801;HTU21D;59647;55.838;37.292;2023-07-28T22:38:15;17.24;102.25
71801;HTU21D;59647;55.838;37.292;2023-07-28T22:40:43;17.26;102.29
71801;HTU21D;59647;55.838;37.292;2023-07-28T22:43:09;17.25;102.58
71801;HTU21D;59647;55.838;37.292;2023-07-28T22:45:35;17.28;102.41
71801;HTU21D;59647;55.838;37.292;2023-07-28T22:48:01;17.30;102.41
71801;HTU21D;59647;55.838;37.292;2023-07-28T22:50:28;17.32;102.63
71801;HTU21D;59647;55.838;37.292;2023-07-28T22:52:54;17.33;102.54
71801;HTU21D;59647;55.838;37.292;2023-07-28T22:55:23;17.34;102.52
71801;HTU21D;59647;55.838;37.292;2023-07-28T22:57:49;17.35;102.22
71801;HTU21D;59647;55.838;37.292;2023-07-28T23:00:15;17.37;102.18
71801;HTU21D;59647;55.838;37.292;2023-07-28T23:02:51;17.39;101.84
71801;HTU21D;59647;55.838;37.292;2023-07-28T23:05:17;17.40;101.59
71801;HTU21D;59647;55.838;37.292;2023-07-28T23:07:44;17.38;101.86
71801;HTU21D;59647;55.838;37.292;2023-07-28T23:10:10;17.37;101.57
71801;HTU21D;59647;55.838;37.292;2023-07-28T23:12:40;17.36;101.90
71801;HTU21D;59647;55.838;37.292;2023-07-28T23:15:06;17.39;101.78
71801;HTU21D;59647;55.838;37.292;2023-07-28T23:17:34;17.40;101.54
71801;HTU21D;59647;55.838;37.292;2023-07-28T23:20:00;17.38;101.41
71801;HTU21D;59647;55.838;37.292;2023-07-28T23:22:26;17.36;101.38
71801;HTU21D;59647;55.838;37.292;2023-07-28T23:24:52;17.28;101.72
71801;HTU21D;59647;55.838;37.292;2023-07-28T23:27:18;17.28;101.86
71801;HTU21D;59647;55.838;37.292;2023-07-28T23:29:47;17.30;101.58
71801;HTU21D;59647;55.838;37.292;2023-07-28T23:32:13;17.30;101.67
71801;HTU21D;59647;55.838;37.292;2023-07-28T23:34:39;17.24;101.77
71801;HTU21D;59647;55.838;37.292;2023-07-28T23:37:05;17.22;102.25
71801;HTU21D;59647;55.838;37.292;2023-07-28T23:39:31;17.22;101.98
71801;HTU21D;59647;55.838;37.292;2023-07-28T23:41:57;17.25;101.64
71801;HTU21D;59647;55.838;37.292;2023-07-28T23:44:27;17.28;101.69
71801;HTU21D;59647;55.838;37.292;2023-07-28T23:46:53;17.26;101.83
71801;HTU21D;59647;55.838;37.292;2023-07-28T23:49:19;17.24;101.80
71801;HTU21D;59647;55.838;37.292;2023-07-28T23:51:47;17.24;101.89
71801;HTU21D;59647;55.838;37.292;2023-07-28T23:54:14;17.26;101.09
71801;HTU21D;59647;55.838;37.292;2023-07-28T23:56:40;17.23;101.15
71801;HTU21D;59647;55.838;37.292;2023-07-28T23:59:06;17.21;101.41
